createdAt,value
2024-02-23T00:01:23.514Z,0.00
2024-02-23T00:03:53.013Z,0.00
2024-02-23T00:06:21.129Z,0.00
2024-02-23T00:08:49.207Z,0.40
2024-02-23T00:11:17.266Z,0.00
2024-02-23T00:13:45.388Z,0.00
2024-02-23T00:16:13.691Z,0.40
2024-02-23T00:18:41.817Z,0.00
2024-02-23T00:21:11.228Z,0.00
2024-02-23T00:23:39.282Z,0.00
2024-02-23T00:26:07.328Z,0.00
2024-02-23T00:28:35.369Z,0.00
2024-02-23T00:31:03.430Z,0.00
2024-02-23T00:33:31.576Z,3.40
2024-02-23T00:35:59.661Z,0.00
2024-02-23T00:38:29.093Z,0.00
2024-02-23T00:40:57.146Z,0.00
2024-02-23T00:43:25.239Z,0.00
2024-02-23T00:45:53.260Z,0.00
2024-02-23T00:48:21.431Z,2.60
2024-02-23T00:50:49.473Z,1.00
2024-02-23T00:53:18.976Z,1.00
2024-02-23T00:55:48.615Z,0.00
2024-02-23T00:58:17.036Z,1.00
2024-02-23T01:00:45.122Z,0.00
2024-02-23T01:03:13.241Z,1.00
2024-02-23T01:05:43.833Z,0.00
2024-02-23T01:08:11.970Z,1.00
2024-02-23T01:10:40.006Z,1.00
2024-02-23T01:13:09.483Z,0.40
2024-02-23T01:15:37.595Z,1.00
2024-02-23T01:18:07.227Z,0.00
2024-02-23T01:20:35.410Z,0.00
2024-02-23T01:23:06.474Z,2.60
2024-02-23T01:25:36.192Z,0.40
2024-02-23T01:28:04.694Z,0.00
2024-02-23T01:30:34.099Z,0.20
2024-02-23T01:33:02.298Z,1.00
2024-02-23T01:35:31.634Z,1.00
2024-02-23T01:37:59.919Z,0.00
2024-02-23T01:40:28.014Z,0.00
2024-02-23T01:43:03.874Z,0.00
2024-02-23T01:45:33.341Z,0.20
2024-02-23T01:48:01.613Z,0.00
2024-02-23T01:50:29.829Z,0.00
2024-02-23T01:52:59.570Z,0.80
2024-02-23T01:55:27.608Z,0.00
2024-02-23T01:57:55.710Z,0.00
2024-02-23T02:00:23.832Z,1.00
2024-02-23T02:02:54.497Z,1.00
2024-02-23T02:05:22.626Z,0.00
2024-02-23T02:07:55.017Z,0.00
2024-02-23T02:10:23.251Z,0.20
2024-02-23T02:12:51.342Z,0.00
2024-02-23T02:15:19.504Z,0.00
2024-02-23T02:17:47.710Z,0.40
2024-02-23T02:20:17.264Z,0.00
2024-02-23T02:22:45.376Z,0.80
2024-02-23T02:25:16.017Z,0.00
2024-02-23T02:27:46.651Z,0.00
2024-02-23T02:30:15.431Z,0.00
2024-02-23T02:32:43.781Z,0.00
2024-02-23T02:35:13.094Z,0.00
2024-02-23T02:37:42.554Z,0.00
2024-02-23T02:40:11.281Z,0.00
2024-02-23T02:42:39.436Z,0.00
2024-02-23T02:45:08.073Z,0.80
2024-02-23T02:47:37.563Z,1.00
2024-02-23T02:50:07.742Z,0.00
2024-02-23T02:52:35.937Z,0.00
2024-02-23T02:55:05.946Z,1.00
2024-02-23T02:57:34.029Z,0.00
2024-02-23T03:00:02.304Z,0.00
2024-02-23T03:02:30.549Z,0.00
2024-02-23T03:04:58.678Z,0.00
2024-02-23T03:07:26.870Z,0.00
2024-02-23T03:09:55.451Z,0.00
2024-02-23T03:12:24.993Z,0.00
2024-02-23T03:14:53.024Z,0.00
2024-02-23T03:17:21.097Z,0.00
2024-02-23T03:19:51.661Z,0.00
2024-02-23T03:22:19.835Z,1.00
2024-02-23T03:24:47.891Z,0.00
2024-02-23T03:27:15.973Z,0.00
2024-02-23T03:29:45.622Z,0.00
2024-02-23T03:32:13.738Z,0.00
2024-02-23T03:34:41.765Z,0.00
2024-02-23T03:37:09.839Z,0.00
2024-02-23T03:39:38.514Z,0.00
2024-02-23T03:42:06.743Z,0.00
2024-02-23T03:44:34.906Z,0.00
2024-02-23T03:47:04.418Z,0.00
2024-02-23T03:49:32.552Z,0.20
2024-02-23T03:52:00.606Z,0.00
2024-02-23T03:54:28.641Z,0.00
2024-02-23T03:56:56.670Z,0.00
2024-02-23T03:59:25.044Z,0.00
2024-02-23T04:01:53.179Z,0.00
2024-02-23T04:04:22.635Z,0.00
2024-02-23T04:06:50.713Z,0.60
2024-02-23T04:09:18.703Z,0.00
2024-02-23T04:11:46.861Z,0.00
2024-02-23T04:14:15.012Z,0.00
2024-02-23T04:16:43.090Z,0.00
2024-02-23T04:19:13.726Z,0.00
2024-02-23T04:21:43.458Z,0.00
2024-02-23T04:24:11.456Z,0.20
2024-02-23T04:26:39.750Z,0.00
2024-02-23T04:29:13.417Z,0.00
2024-02-23T04:31:43.505Z,0.00
2024-02-23T04:34:11.628Z,0.00
2024-02-23T04:36:39.745Z,0.00
2024-02-23T04:39:09.309Z,0.00
2024-02-23T04:41:37.387Z,0.40
2024-02-23T04:44:05.886Z,0.00
2024-02-23T04:46:35.575Z,0.00
2024-02-23T04:49:03.985Z,0.20
2024-02-23T04:51:32.031Z,0.00
2024-02-23T04:54:00.053Z,0.00
2024-02-23T04:56:29.521Z,0.00
2024-02-23T04:58:57.588Z,0.00
2024-02-23T05:01:28.702Z,0.00
2024-02-23T05:03:56.772Z,0.00
2024-02-23T05:06:24.873Z,0.00
2024-02-23T05:08:52.935Z,0.00
2024-02-23T05:11:21.024Z,0.00
2024-02-23T05:13:50.743Z,0.00
2024-02-23T05:16:18.789Z,0.00
2024-02-23T05:18:47.742Z,0.00
2024-02-23T05:21:17.007Z,0.00
2024-02-23T05:23:45.152Z,2.40
2024-02-23T05:26:13.226Z,0.60
2024-02-23T05:28:41.223Z,0.00
2024-02-23T05:31:11.616Z,0.00
2024-02-23T05:33:39.833Z,1.00
2024-02-23T05:36:08.850Z,0.00
2024-02-23T05:38:36.974Z,0.00
2024-02-23T05:41:06.528Z,2.00
2024-02-23T05:43:36.351Z,0.40
2024-02-23T05:46:05.356Z,0.00
2024-02-23T05:48:35.159Z,0.00
2024-02-23T05:51:03.283Z,0.00
2024-02-23T05:53:33.994Z,0.00
2024-02-23T05:56:02.172Z,0.00
2024-02-23T05:58:30.379Z,0.00
2024-02-23T06:00:58.474Z,0.00
2024-02-23T06:03:26.629Z,0.20
2024-02-23T06:05:56.306Z,0.00
2024-02-23T06:08:24.418Z,0.40
2024-02-23T06:10:52.543Z,0.00
2024-02-23T06:13:20.591Z,1.00
2024-02-23T06:15:48.628Z,0.40
2024-02-23T06:18:16.674Z,0.00
2024-02-23T06:20:44.785Z,0.00
2024-02-23T06:23:14.811Z,0.00
2024-02-23T06:25:44.628Z,1.00
2024-02-23T06:28:14.647Z,0.00
2024-02-23T06:30:42.721Z,0.00
2024-02-23T06:33:13.623Z,1.00
2024-02-23T06:35:43.934Z,0.00
2024-02-23T06:38:13.692Z,0.00
2024-02-23T06:40:48.622Z,0.00
2024-02-23T06:43:23.262Z,0.00
2024-02-23T06:45:51.664Z,0.00
2024-02-23T06:48:19.849Z,0.00
2024-02-23T06:50:49.158Z,0.00
2024-02-23T06:53:18.650Z,0.00
2024-02-23T06:55:49.228Z,0.00
2024-02-23T06:58:17.947Z,0.00
2024-02-23T07:00:46.019Z,0.00
2024-02-23T07:03:14.050Z,0.00
2024-02-23T07:05:48.182Z,0.00
2024-02-23T07:08:16.524Z,0.00
2024-02-23T07:10:46.516Z,0.00
2024-02-23T07:13:14.601Z,0.00
2024-02-23T07:15:42.640Z,0.00
2024-02-23T07:18:10.868Z,0.20
2024-02-23T07:20:39.075Z,0.00
2024-02-23T07:23:07.342Z,3.00
2024-02-23T07:25:35.383Z,0.00
2024-02-23T07:28:04.972Z,0.60
2024-02-23T07:30:33.038Z,0.00
2024-02-23T07:33:01.102Z,0.00
2024-02-23T07:35:29.666Z,0.60
2024-02-23T07:37:57.780Z,0.00
2024-02-23T07:40:25.818Z,0.00
2024-02-23T07:42:54.053Z,0.00
2024-02-23T07:45:30.225Z,1.00
2024-02-23T07:48:00.894Z,0.80
2024-02-23T07:50:29.085Z,0.00
2024-02-23T07:52:57.185Z,0.00
2024-02-23T07:55:25.208Z,0.00
2024-02-23T07:57:53.210Z,0.00
2024-02-23T08:00:24.574Z,0.00
2024-02-23T08:02:57.831Z,0.60
2024-02-23T08:05:26.149Z,0.00
2024-02-23T08:07:54.420Z,0.00
2024-02-23T08:10:22.932Z,0.00
2024-02-23T08:12:50.958Z,0.00
2024-02-23T08:15:18.964Z,0.00
2024-02-23T08:17:48.447Z,0.00
2024-02-23T08:20:16.737Z,0.00
2024-02-23T08:22:44.867Z,0.00
2024-02-23T08:25:15.691Z,0.00
2024-02-23T08:27:44.112Z,1.00
2024-02-23T08:30:13.073Z,0.00
2024-02-23T08:32:41.408Z,0.00
2024-02-23T08:35:12.217Z,0.20
2024-02-23T08:37:41.159Z,0.00
2024-02-23T08:40:16.944Z,0.00
2024-02-23T08:42:45.639Z,0.00
2024-02-23T08:45:14.596Z,0.00
2024-02-23T08:47:44.124Z,0.00
2024-02-23T08:50:13.956Z,0.00
2024-02-23T08:52:42.678Z,4.00
2024-02-23T08:55:11.230Z,0.00
2024-02-23T08:57:39.286Z,0.00
2024-02-23T09:00:08.559Z,0.40
2024-02-23T09:02:39.381Z,0.00
2024-02-23T09:05:08.305Z,0.40
2024-02-23T09:07:37.964Z,0.00
2024-02-23T09:10:07.220Z,0.00
2024-02-23T09:12:35.273Z,0.00
2024-02-23T09:15:04.101Z,0.00
2024-02-23T09:17:32.274Z,0.00
2024-02-23T09:20:00.613Z,0.00
2024-02-23T09:22:29.000Z,1.00
2024-02-23T09:24:58.582Z,1.00
2024-02-23T09:27:26.691Z,0.00
2024-02-23T09:29:55.608Z,0.00
2024-02-23T09:32:24.476Z,0.00
2024-02-23T09:34:52.610Z,0.00
2024-02-23T09:37:20.639Z,0.00
2024-02-23T09:39:48.700Z,0.00
2024-02-23T09:42:19.432Z,0.00
2024-02-23T09:44:49.173Z,0.00
2024-02-23T09:47:17.220Z,0.00
2024-02-23T09:49:46.047Z,1.00
2024-02-23T09:52:14.055Z,0.00
2024-02-23T09:54:42.140Z,0.00
2024-02-23T09:57:11.004Z,0.00
2024-02-23T09:59:40.897Z,0.00
2024-02-23T10:02:14.271Z,0.80
2024-02-23T10:04:45.910Z,0.20
2024-02-23T10:07:17.064Z,0.00
2024-02-23T10:09:45.463Z,0.00
2024-02-23T10:12:13.900Z,0.00
2024-02-23T10:14:45.515Z,0.80
2024-02-23T10:17:13.727Z,0.00
2024-02-23T10:19:42.883Z,0.00
2024-02-23T10:22:11.404Z,0.00
2024-02-23T10:24:45.683Z,0.00
2024-02-23T10:27:13.684Z,0.00
2024-02-23T10:29:41.778Z,1.00
2024-02-23T10:32:18.242Z,0.00
2024-02-23T10:34:47.149Z,0.00
2024-02-23T10:37:15.252Z,0.00
2024-02-23T10:39:43.995Z,0.00
2024-02-23T10:42:15.108Z,0.00
2024-02-23T10:44:46.804Z,0.00
2024-02-23T10:47:17.768Z,0.20
2024-02-23T10:49:48.528Z,0.00
2024-02-23T10:52:19.149Z,0.00
2024-02-23T10:54:47.666Z,0.00
2024-02-23T10:57:18.021Z,0.00
2024-02-23T10:59:48.454Z,0.60
2024-02-23T11:02:19.700Z,0.00
2024-02-23T11:04:51.842Z,0.00
2024-02-23T11:07:22.100Z,0.00
2024-02-23T11:09:54.934Z,0.00
2024-02-23T11:12:53.663Z,0.00
2024-02-23T11:15:31.231Z,0.00
2024-02-23T11:18:00.826Z,0.00
2024-02-23T11:20:37.308Z,0.00
2024-02-23T11:23:15.721Z,0.80
2024-02-23T11:25:43.854Z,1.00
2024-02-23T11:28:13.001Z,0.00
2024-02-23T11:30:47.321Z,0.00
2024-02-23T11:33:19.807Z,0.00
2024-02-23T11:35:50.787Z,0.00
2024-02-23T11:38:19.183Z,0.00
2024-02-23T11:40:47.581Z,2.40
2024-02-23T11:43:15.615Z,0.00
2024-02-23T11:45:43.744Z,0.00
2024-02-23T11:48:11.818Z,0.00
2024-02-23T11:50:41.285Z,1.00
2024-02-23T11:53:09.354Z,0.00
2024-02-23T11:55:37.851Z,0.80
2024-02-23T11:58:11.422Z,0.00
2024-02-23T12:00:47.219Z,0.00
2024-02-23T12:03:26.738Z,0.00
2024-02-23T12:05:56.280Z,0.00
2024-02-23T12:08:25.162Z,0.00
2024-02-23T12:10:53.267Z,0.00
2024-02-23T12:13:21.429Z,0.00
2024-02-23T12:15:49.685Z,0.00
2024-02-23T12:18:18.719Z,0.00
2024-02-23T12:20:48.465Z,0.00
2024-02-23T12:23:18.250Z,0.00
2024-02-23T12:25:54.969Z,0.00
2024-02-23T12:28:22.995Z,0.00
2024-02-23T12:31:01.201Z,0.00
2024-02-23T12:33:31.053Z,0.00
2024-02-23T12:35:59.210Z,0.00
2024-02-23T12:38:28.678Z,0.00
2024-02-23T12:40:56.868Z,0.00
2024-02-23T12:43:25.543Z,0.00
2024-02-23T12:45:53.986Z,0.00
2024-02-23T12:48:22.566Z,0.00
2024-02-23T12:50:50.730Z,0.00
2024-02-23T12:53:36.462Z,0.00
2024-02-23T12:56:36.061Z,0.20
2024-02-23T12:59:35.810Z,1.80
2024-02-23T13:02:04.800Z,0.40
2024-02-23T13:04:35.885Z,0.00
2024-02-23T13:07:07.065Z,0.00
2024-02-23T13:09:36.520Z,0.00
2024-02-23T13:12:05.536Z,0.00
2024-02-23T13:14:33.636Z,0.00
2024-02-23T13:17:01.780Z,0.40
2024-02-23T13:19:30.901Z,0.00
2024-02-23T13:22:01.575Z,0.00
2024-02-23T13:24:30.310Z,0.00
2024-02-23T13:27:00.283Z,0.00
2024-02-23T13:29:28.882Z,0.00
2024-02-23T13:31:57.057Z,0.00
2024-02-23T13:34:35.247Z,0.00
2024-02-23T13:37:04.614Z,3.60
2024-02-23T13:39:34.033Z,0.00
2024-02-23T13:42:06.858Z,0.80
2024-02-23T13:44:34.912Z,0.00
2024-02-23T13:47:18.795Z,0.00
2024-02-23T13:49:52.214Z,0.80
2024-02-23T13:52:20.519Z,0.00
2024-02-23T13:54:48.559Z,0.00
2024-02-23T13:57:18.098Z,0.40
2024-02-23T13:59:47.608Z,0.80
2024-02-23T14:02:16.510Z,0.00
2024-02-23T14:04:46.485Z,0.00
2024-02-23T14:07:14.568Z,0.00
2024-02-23T14:09:42.750Z,0.00
2024-02-23T14:12:13.461Z,0.00
2024-02-23T14:14:49.565Z,0.20
2024-02-23T14:17:31.765Z,0.20
2024-02-23T14:20:02.074Z,2.20
2024-02-23T14:22:30.270Z,3.00
2024-02-23T14:24:58.357Z,0.20
2024-02-23T14:27:27.700Z,0.00
2024-02-23T14:29:59.722Z,0.40
2024-02-23T14:32:28.030Z,0.00
2024-02-23T14:34:56.597Z,0.00
2024-02-23T14:37:25.007Z,0.00
2024-02-23T14:39:55.627Z,0.00
2024-02-23T14:42:52.345Z,1.00
2024-02-23T14:45:24.504Z,0.00
2024-02-23T14:47:52.758Z,0.00
2024-02-23T14:50:22.116Z,0.00
2024-02-23T14:52:50.232Z,0.00
2024-02-23T14:55:18.224Z,0.00
2024-02-23T14:57:49.644Z,0.00
2024-02-23T15:00:18.835Z,0.20
2024-02-23T15:02:50.151Z,0.00
2024-02-23T15:05:19.017Z,0.00
2024-02-23T15:07:47.323Z,0.00
2024-02-23T15:10:16.170Z,0.00
2024-02-23T15:12:44.232Z,0.00
2024-02-23T15:15:15.669Z,0.00
2024-02-23T15:17:44.116Z,0.00
2024-02-23T15:20:15.112Z,0.00
2024-02-23T15:22:43.993Z,0.00
2024-02-23T15:25:12.669Z,0.00
2024-02-23T15:27:40.697Z,0.00
2024-02-23T15:30:20.943Z,0.00
2024-02-23T15:32:49.302Z,0.00
2024-02-23T15:35:22.753Z,0.00
2024-02-23T15:37:50.795Z,0.00
2024-02-23T15:40:18.825Z,0.00
2024-02-23T15:42:46.867Z,0.60
2024-02-23T15:45:14.871Z,1.00
2024-02-23T15:47:43.300Z,0.00
2024-02-23T15:50:29.852Z,1.00
2024-02-23T15:53:06.028Z,0.00
2024-02-23T15:55:34.449Z,0.00
2024-02-23T15:58:02.552Z,0.00
2024-02-23T16:00:30.690Z,0.00
2024-02-23T16:02:58.679Z,0.00
2024-02-23T16:05:26.781Z,0.00
2024-02-23T16:07:55.310Z,0.00
2024-02-23T16:10:25.491Z,0.20
2024-02-23T16:12:54.706Z,0.00
2024-02-23T16:15:22.679Z,0.00
2024-02-23T16:17:50.992Z,0.00
2024-02-23T16:20:19.073Z,0.00
2024-02-23T16:22:51.867Z,1.00
2024-02-23T16:25:27.945Z,0.00
2024-02-23T16:27:58.124Z,0.00
2024-02-23T16:30:26.117Z,0.00
2024-02-23T16:32:54.639Z,0.00
2024-02-23T16:35:22.815Z,0.00
2024-02-23T16:37:50.835Z,1.00
2024-02-23T16:40:24.499Z,0.00
2024-02-23T16:42:54.060Z,0.00
2024-02-23T16:45:31.829Z,0.80
2024-02-23T16:48:02.371Z,0.00
2024-02-23T16:50:33.356Z,0.00
2024-02-23T16:53:01.406Z,0.00
2024-02-23T16:55:32.244Z,1.00
2024-02-23T16:58:01.649Z,0.00
2024-02-23T17:00:34.742Z,0.60
2024-02-23T17:03:03.067Z,1.00
2024-02-23T17:05:31.186Z,1.80
2024-02-23T17:07:59.295Z,1.00
2024-02-23T17:10:27.956Z,0.40
2024-02-23T17:12:56.991Z,3.00
2024-02-23T17:15:25.073Z,0.00
2024-02-23T17:17:54.654Z,2.20
2024-02-23T17:20:22.889Z,4.40
2024-02-23T17:22:50.901Z,1.00
2024-02-23T17:25:18.977Z,0.00
2024-02-23T17:27:47.825Z,1.00
2024-02-23T17:30:16.101Z,0.60
2024-02-23T17:32:44.197Z,1.00
2024-02-23T17:35:13.842Z,1.40
2024-02-23T17:37:42.184Z,0.00
2024-02-23T17:40:11.872Z,0.00
2024-02-23T17:42:41.215Z,0.00
2024-02-23T17:45:10.783Z,1.00
2024-02-23T17:47:39.166Z,0.00
2024-02-23T17:50:08.995Z,0.00
2024-02-23T17:52:38.656Z,0.00
2024-02-23T17:55:07.585Z,0.00
2024-02-23T17:57:35.608Z,0.00
2024-02-23T18:00:04.474Z,0.20
2024-02-23T18:02:32.540Z,1.00
2024-02-23T18:05:00.670Z,1.80
2024-02-23T18:07:30.963Z,3.00
2024-02-23T18:10:00.897Z,3.20
2024-02-23T18:12:28.947Z,0.00
2024-02-23T18:14:56.984Z,1.00
2024-02-23T18:17:28.352Z,0.40
2024-02-23T18:19:56.934Z,0.00
2024-02-23T18:22:25.006Z,0.00
2024-02-23T18:24:52.966Z,0.00
2024-02-23T18:27:22.425Z,0.80
2024-02-23T18:29:50.460Z,0.80
2024-02-23T18:32:18.740Z,0.00
2024-02-23T18:34:47.676Z,0.00
2024-02-23T18:37:15.641Z,0.00
2024-02-23T18:39:43.972Z,0.00
2024-02-23T18:42:11.914Z,0.60
2024-02-23T18:44:41.469Z,0.80
2024-02-23T18:47:09.515Z,0.00
2024-02-23T18:49:38.161Z,0.00
2024-02-23T18:52:08.696Z,0.00
2024-02-23T18:54:36.777Z,0.60
2024-02-23T18:57:05.070Z,1.00
2024-02-23T18:59:33.183Z,0.00
2024-02-23T19:02:16.028Z,0.00
2024-02-23T19:04:46.802Z,1.00
2024-02-23T19:07:15.438Z,2.60
2024-02-23T19:09:43.421Z,0.00
2024-02-23T19:12:12.380Z,2.40
2024-02-23T19:14:40.540Z,0.00
2024-02-23T19:17:10.182Z,1.00
2024-02-23T19:19:38.466Z,0.60
2024-02-23T19:22:06.496Z,1.80
2024-02-23T19:24:34.701Z,8.00
2024-02-23T19:27:02.735Z,6.00
2024-02-23T19:29:31.636Z,6.00
2024-02-23T19:31:59.756Z,4.00
2024-02-23T19:34:29.170Z,3.80
2024-02-23T19:36:59.736Z,3.00
2024-02-23T19:39:27.712Z,1.00
2024-02-23T19:41:55.878Z,1.00
2024-02-23T19:44:23.966Z,0.60
2024-02-23T19:46:52.020Z,1.00
2024-02-23T19:49:20.161Z,0.20
2024-02-23T19:51:49.602Z,1.80
2024-02-23T19:54:17.784Z,1.00
2024-02-23T19:56:45.877Z,0.60
2024-02-23T19:59:14.161Z,1.00
2024-02-23T20:01:42.236Z,0.40
2024-02-23T20:04:10.271Z,3.00
2024-02-23T20:06:38.346Z,1.40
2024-02-23T20:09:11.220Z,0.00
2024-02-23T20:11:39.440Z,0.00
2024-02-23T20:14:07.536Z,1.00
2024-02-23T20:16:35.523Z,2.20
2024-02-23T20:19:03.593Z,0.40
2024-02-23T20:21:31.582Z,1.00
2024-02-23T20:23:59.598Z,3.20
2024-02-23T20:26:29.059Z,2.60
2024-02-23T20:28:57.008Z,3.00
2024-02-23T20:31:25.217Z,3.60
2024-02-23T20:33:53.309Z,3.60
2024-02-23T20:36:21.373Z,4.00
2024-02-23T20:38:49.594Z,3.00
2024-02-23T20:41:17.689Z,5.20
2024-02-23T20:43:47.479Z,3.20
2024-02-23T20:46:15.762Z,4.00
2024-02-23T20:48:44.264Z,4.00
2024-02-23T20:51:55.578Z,4.00
2024-02-23T20:54:34.283Z,4.00
2024-02-23T20:57:04.189Z,6.20
2024-02-23T20:59:33.709Z,3.00
2024-02-23T21:02:02.151Z,3.00
2024-02-23T21:04:30.351Z,3.00
2024-02-23T21:06:58.445Z,1.80
2024-02-23T21:09:27.062Z,3.00
2024-02-23T21:11:55.282Z,3.40
2024-02-23T21:14:23.428Z,4.00
2024-02-23T21:16:52.953Z,6.60
2024-02-23T21:19:21.606Z,4.00
2024-02-23T21:21:55.275Z,18.80
2024-02-23T21:24:28.182Z,24.40
2024-02-23T21:26:58.223Z,13.00
2024-02-23T21:29:26.404Z,10.00
2024-02-23T21:31:56.965Z,10.00
2024-02-23T21:34:25.074Z,9.40
2024-02-23T21:36:53.160Z,7.00
2024-02-23T21:39:21.213Z,3.00
2024-02-23T21:41:49.276Z,3.00
2024-02-23T21:44:18.063Z,0.40
2024-02-23T21:46:46.189Z,3.00
2024-02-23T21:49:16.330Z,0.20
2024-02-23T21:51:44.397Z,1.40
2024-02-23T21:54:12.388Z,3.00
2024-02-23T21:56:40.536Z,3.40
2024-02-23T21:59:08.606Z,1.00
2024-02-23T22:01:36.870Z,1.40
2024-02-23T22:04:05.357Z,1.00
2024-02-23T22:06:34.860Z,2.60
2024-02-23T22:09:03.402Z,3.00
2024-02-23T22:11:31.565Z,1.40
2024-02-23T22:13:59.641Z,0.00
2024-02-23T22:16:28.907Z,1.00
2024-02-23T22:18:57.036Z,1.00
2024-02-23T22:21:25.124Z,0.80
2024-02-23T22:23:54.586Z,0.40
2024-02-23T22:26:22.716Z,1.00
2024-02-23T22:28:50.676Z,1.00
2024-02-23T22:31:18.734Z,1.00
2024-02-23T22:33:46.906Z,1.00
2024-02-23T22:36:15.063Z,1.00
2024-02-23T22:38:45.086Z,1.80
2024-02-23T22:41:14.801Z,3.00
2024-02-23T22:43:42.872Z,0.40
2024-02-23T22:46:10.871Z,1.00
2024-02-23T22:48:39.029Z,1.00
2024-02-23T22:51:07.155Z,1.00
2024-02-23T22:53:36.003Z,1.00
2024-02-23T22:56:04.312Z,1.40
2024-02-23T22:58:33.801Z,1.00
2024-02-23T23:01:01.928Z,0.00
2024-02-23T23:03:29.954Z,0.00
2024-02-23T23:05:58.361Z,0.60
2024-02-23T23:08:28.264Z,0.40
2024-02-23T23:10:56.435Z,0.00
2024-02-23T23:13:24.632Z,0.40
2024-02-23T23:15:54.019Z,1.00
2024-02-23T23:18:22.132Z,0.00
2024-02-23T23:20:50.311Z,0.40
2024-02-23T23:23:18.358Z,0.00
2024-02-23T23:25:46.385Z,0.00
2024-02-23T23:28:14.462Z,0.00
2024-02-23T23:30:42.512Z,0.00
2024-02-23T23:33:12.079Z,0.00
2024-02-23T23:35:40.437Z,0.00
2024-02-23T23:38:08.569Z,0.00
2024-02-23T23:40:36.602Z,0.00
2024-02-23T23:43:04.814Z,0.20
2024-02-23T23:45:32.909Z,1.00
2024-02-23T23:48:01.178Z,0.40
2024-02-23T23:50:30.772Z,0.00
2024-02-23T23:52:58.927Z,1.80
2024-02-23T23:55:26.902Z,0.20
2024-02-23T23:57:54.995Z,1.00
